Latest Weather Observations for Cape Wessel

IDD60801

Issued at 7:11 pm CST Sunday 19 August 2018 (issued every 10 minutes, with the page automatically refreshed every 10 minutes)

About weather observations | Map of weather stations | Latest weather observations for NT | Other Formats
Station Details ID: 200786 Name: CAPE WESSEL Lat: -11.00 Lon: 136.76 Height: 18.0 m
Data from the previous 72 hours. | See also: Recent months at Cape Wessel
Date/Time
CST
Temp
°C
App
Temp
°C
Dew
Point
°C
Rel
Hum
%
Delta-T
°C
Wind Press
QNH
hPa
Press
MSL
hPa
Rain since
9am
mm
Dir  Spd
km/h
Gust
km/h
Spd
kts
Gust
kts
19/07:00pm 25.4 22.8 21.5 79 2.6 SSE 37 46 20 25 1013.8 1013.7 0.0
19/06:30pm 25.7 23.0 22.0 80 2.5 SSE 39 46 21 25 1013.5 1013.4 0.0
19/06:00pm 26.0 24.6 22.3 80 2.5 SSE 33 41 18 22 1013.0 1012.9 0.0
19/05:30pm 27.0 25.7 22.4 76 3.1 SE 33 41 18 22 1012.9 1012.8 0.0
19/05:00pm 27.7 26.8 22.2 72 3.7 SE 30 35 16 19 1012.7 1012.6 0.0
19/04:30pm 28.3 27.6 21.8 68 4.4 SE 28 37 15 20 1012.6 1012.5 0.0
19/04:00pm 29.3 28.7 22.0 64 4.9 SE 28 35 15 19 1012.7 1012.6 0.0
19/03:30pm 29.6 29.2 22.3 65 5.0 SE 28 35 15 19 1012.6 1012.5 0.0
19/03:00pm 29.7 29.2 22.2 64 5.1 SE 28 35 15 19 1012.8 1012.7 0.0
19/02:30pm 30.3 30.8 21.9 60 5.7 SE 22 28 12 15 1012.9 1012.8 0.0
19/02:00pm 30.7 31.0 22.3 61 5.7 SE 24 30 13 16 1013.3 1013.2 0.0
19/01:30pm 30.1 30.1 21.7 60 5.7 SE 24 28 13 15 1013.5 1013.4 0.0
19/01:00pm 30.8 30.9 21.9 59 6.0 SE 24 30 13 16 1013.9 1013.8 0.0
19/12:30pm 30.8 31.3 22.7 62 5.5 SE 24 32 13 17 1014.2 1014.1 0.0
19/12:00pm 30.7 30.9 22.8 62 5.4 SE 26 32 14 17 1014.4 1014.3 0.0
19/11:30am 30.0 29.9 22.2 63 5.3 SE 26 33 14 18 1014.7 1014.6 0.0
19/11:00am 29.5 29.0 22.2 65 4.9 SE 28 33 15 18 1014.9 1014.8 0.0
19/10:30am 28.9 28.5 22.4 68 4.4 ESE 28 33 15 18 1015.1 1015.0 0.0
19/10:00am 28.8 28.1 22.5 68 4.3 ESE 30 35 16 19 1015.2 1015.1 0.0
19/09:30am 28.7 28.3 22.4 68 4.3 ESE 28 33 15 18 1015.3 1015.2 0.0
19/09:00am 28.1 27.9 22.8 73 3.6 SE 28 33 15 18 1015.2 1015.1 0.0
19/08:30am 27.3 26.9 22.3 74 3.4 SE 28 33 15 18 1014.9 1014.8 0.0
19/08:00am 26.7 26.4 22.5 78 2.8 SE 28 33 15 18 1014.7 1014.6 0.0
19/07:30am 25.8 25.7 22.3 81 2.3 SE 26 32 14 17 1014.5 1014.4 0.0
19/07:00am 24.9 24.7 22.0 84 1.9 SE 26 32 14 17 1014.2 1014.1 0.0
19/06:30am 24.6 24.4 22.1 86 1.7 ESE 26 32 14 17 1014.1 1014.0 0.0
19/06:00am 24.7 24.7 22.4 87 1.5 ESE 26 33 14 18 1013.7 1013.6 0.0
19/05:30am 24.7 24.6 22.2 86 1.7 SE 26 32 14 17 1013.4 1013.3 0.0
19/05:00am 24.6 24.4 22.1 86 1.7 SE 26 32 14 17 1013.1 1013.0 0.0
19/04:30am 24.6 24.5 22.3 87 1.5 SE 26 30 14 16 1013.0 1012.9 0.0
19/04:00am 24.7 24.7 22.4 87 1.5 SE 26 30 14 16 1013.0 1012.9 0.0
19/03:30am 24.7 24.6 22.2 86 1.7 SE 26 32 14 17 1013.0 1012.9 0.0
19/03:00am 24.9 24.4 22.2 85 1.8 SE 28 32 15 17 1013.1 1013.0 0.0
19/02:30am 24.9 25.3 22.4 86 1.7 SE 24 30 13 16 1013.2 1013.1 0.0
19/02:00am 24.9 25.3 22.4 86 1.7 SE 24 30 13 16 1013.2 1013.1 0.0
19/01:30am 24.9 24.7 22.0 84 1.9 SE 26 32 14 17 1013.4 1013.3 0.0
19/01:00am 24.9 25.0 21.8 83 2.1 SE 24 30 13 16 1013.6 1013.5 0.0
19/12:30am 24.8 24.3 21.5 82 2.2 SE 26 32 14 17 1014.0 1013.9 0.0
19/12:00am 24.7 24.4 21.8 84 1.9 SE 26 30 14 16 1014.2 1014.1 0.0
 
Date/Time
CST
Temp
°C
App
Temp
°C
Dew
Point
°C
Rel
Hum
%
Delta-T
°C
Wind Press
QNH
hPa
Press
MSL
hPa
Rain since
9am
mm
Dir  Spd
km/h
Gust
km/h
Spd
kts
Gust
kts
18/11:30pm 24.7 25.4 22.2 86 1.7 SE 22 28 12 15 1014.3 1014.2 0.0
18/11:00pm 24.7 25.6 22.0 85 1.8 SE 20 26 11 14 1014.6 1014.5 0.0
18/10:30pm 25.1 26.0 22.0 83 2.1 ESE 20 24 11 13 1014.8 1014.7 0.0
18/10:00pm 24.9 25.0 21.8 83 2.1 ESE 24 28 13 15 1014.8 1014.7 0.0
18/09:30pm 24.9 24.8 22.2 85 1.8 ESE 26 33 14 18 1014.6 1014.5 0.0
18/09:00pm 24.9 24.3 22.6 87 1.5 ESE 30 39 16 21 1014.3 1014.2 0.0
18/08:30pm 24.6 24.1 22.1 86 1.7 ESE 28 35 15 19 1014.0 1013.9 0.0
18/08:00pm 24.4 24.0 22.3 88 1.4 ESE 28 35 15 19 1013.8 1013.7 0.0
18/07:30pm 24.3 22.9 22.0 87 1.5 ESE 32 39 17 21 1013.3 1013.2 0.0
18/07:00pm 24.5 23.4 22.4 88 1.4 ESE 32 37 17 20 1012.9 1012.8 0.0
18/06:30pm 24.7 23.8 22.8 89 1.3 ESE 32 39 17 21 1012.6 1012.5 0.0
18/06:00pm 26.1 26.3 22.8 82 2.2 SE 26 33 14 18 1012.3 1012.2 0.0
18/05:30pm 26.8 26.8 22.4 77 3.0 SE 26 33 14 18 1012.1 1012.0 0.0
18/05:00pm 28.2 28.7 22.7 72 3.7 SE 24 30 13 16 1012.1 1012.0 0.0
18/04:30pm 28.3 29.1 22.5 71 3.9 SE 22 28 12 15 1012.0 1011.9 0.0
18/04:00pm 29.2 30.0 22.4 66 4.6 SE 22 26 12 14 1011.8 1011.7 0.0
18/03:30pm 29.8 31.0 22.5 65 5.0 SE 20 28 11 15 1011.8 1011.7 0.0
18/03:00pm 29.8 30.7 22.0 63 5.3 SE 20 26 11 14 1011.8 1011.7 0.0
18/02:30pm 30.1 31.3 22.5 63 5.2 SE 20 26 11 14 1012.1 1012.0 0.0
18/02:00pm 30.8 32.2 22.9 62 5.4 ESE 20 24 11 13 1012.5 1012.4 0.0
18/01:30pm 29.8 30.9 22.3 64 5.1 ESE 20 22 11 12 1012.8 1012.7 0.0
18/01:00pm 29.9 30.6 21.6 61 5.6 ESE 20 26 11 14 1013.2 1013.1 0.0
18/12:30pm 29.7 30.8 21.9 63 5.3 ESE 19 22 10 12 1013.4 1013.3 0.0
18/12:00pm 30.1 31.8 22.3 63 5.3 ESE 17 20 9 11 1013.8 1013.7 0.0
18/11:30am 29.8 31.1 22.3 64 5.1 ESE 19 22 10 12 1014.2 1014.1 0.0
18/11:00am 29.9 31.2 22.3 63 5.2 ESE 19 22 10 12 1014.5 1014.4 0.0
18/10:30am 29.2 30.5 22.4 66 4.6 ESE 19 22 10 12 1014.8 1014.7 0.0
18/10:00am 28.6 29.8 22.1 68 4.4 ESE 19 22 10 12 1014.9 1014.8 0.0
18/09:30am 28.4 29.7 22.4 70 4.1 ESE 19 20 10 11 1014.8 1014.7 0.0
18/09:00am 28.3 30.2 22.8 72 3.7 ESE 17 20 9 11 1014.7 1014.6 0.0
18/08:30am 27.2 28.6 21.9 73 3.6 ESE 17 20 9 11 1014.5 1014.4 0.0
18/08:00am 26.5 28.1 22.1 77 3.0 ESE 17 20 9 11 1014.3 1014.2 0.0
18/07:30am 25.5 27.5 22.2 82 2.2 ESE 15 20 8 11 1014.3 1014.2 0.0
18/07:00am 24.2 25.6 21.9 87 1.5 SE 17 19 9 10 1014.1 1014.0 0.0
18/06:30am 23.7 25.6 21.4 87 1.5 SE 13 17 7 9 1013.7 1013.6 0.0
18/06:00am 23.4 24.9 21.3 88 1.4 SE 15 17 8 9 1013.3 1013.2 0.0
18/05:30am 23.3 25.0 21.0 87 1.5 SE 13 15 7 8 1012.8 1012.7 0.0
18/05:00am 23.6 25.4 21.1 86 1.6 SSE 13 17 7 9 1012.7 1012.6 0.0
18/04:30am 23.6 24.9 20.9 85 1.8 SE 15 19 8 10 1012.6 1012.5 0.0
18/04:00am 23.7 24.8 21.2 86 1.6 SSE 17 20 9 11 1012.4 1012.3 0.0
18/03:30am 23.8 24.9 21.3 86 1.6 SSE 17 20 9 11 1012.4 1012.3 0.0
18/03:00am 23.9 25.0 21.2 85 1.8 SE 17 20 9 11 1012.7 1012.6 0.0
18/02:30am 24.4 25.3 21.5 84 1.9 SE 19 22 10 12 1012.8 1012.7 0.0
18/02:00am 24.2 25.4 21.5 85 1.8 SE 17 20 9 11 1012.9 1012.8 0.0
18/01:30am 24.2 25.0 21.3 84 1.9 SE 19 22 10 12 1012.9 1012.8 0.0
18/01:00am 24.3 24.4 21.2 83 2.0 SE 22 24 12 13 1013.0 1012.9 0.0
18/12:30am 24.5 25.2 21.6 84 1.9 SE 20 26 11 14 1013.2 1013.1 0.0
18/12:00am 24.5 24.4 21.4 83 2.0 SE 24 28 13 15 1013.4 1013.3 0.0
 
Date/Time
CST
Temp
°C
App
Temp
°C
Dew
Point
°C
Rel
Hum
%
Delta-T
°C
Wind Press
QNH
hPa
Press
MSL
hPa
Rain since
9am
mm
Dir  Spd
km/h
Gust
km/h
Spd
kts
Gust
kts
17/11:30pm 24.5 24.6 21.2 82 2.2 SE 22 28 12 15 1013.4 1013.3 0.0
17/11:00pm 24.6 24.4 21.3 82 2.2 SE 24 30 13 16 1013.3 1013.2 0.0
17/10:30pm 24.7 24.6 21.4 82 2.2 SE 24 30 13 16 1013.2 1013.1 0.0
17/10:00pm 24.6 23.9 21.1 81 2.3 SE 26 33 14 18 1013.1 1013.0 0.0
17/09:30pm 24.7 24.1 21.2 81 2.3 ESE 26 32 14 17 1013.0 1012.9 0.0
17/09:00pm 24.9 24.4 21.4 81 2.3 ESE 26 32 14 17 1013.0 1012.9 0.0
17/08:30pm 24.9 23.9 21.2 80 2.4 ESE 28 33 15 18 1012.7 1012.6 0.0
17/08:00pm 24.7 24.0 21.0 80 2.4 ESE 26 32 14 17 1012.4 1012.3 0.0
17/07:30pm 24.9 24.4 21.4 81 2.3 ESE 26 32 14 17 1011.9 1011.8 0.0
17/07:00pm 24.9 24.3 21.2 80 2.4 ESE 26 32 14 17 1011.5 1011.4 0.0
17/06:30pm 24.9 24.2 21.0 79 2.6 ESE 26 33 14 18 1011.2 1011.1 0.0
17/06:00pm 25.6 25.0 21.3 77 2.8 ESE 26 32 14 17 1010.8 1010.7 0.0
17/05:30pm 26.1 25.4 21.1 74 3.3 ESE 26 32 14 17 1010.5 1010.4 0.0
17/05:00pm 27.2 26.6 21.2 69 4.0 SE 26 32 14 17 1010.2 1010.1 0.0
17/04:30pm 26.9 26.4 20.7 69 4.1 SE 24 32 13 17 1010.1 1010.0 0.0
17/04:00pm 28.5 27.9 21.3 65 4.8 SE 26 32 14 17 1009.9 1009.8 0.0
17/03:30pm 27.9 27.9 21.0 66 4.6 SE 22 30 12 16 1009.8 1009.7 0.0
17/03:00pm 29.5 29.6 21.2 61 5.6 SE 22 28 12 15 1010.1 1010.0 0.0
17/02:30pm 29.5 29.6 21.2 61 5.6 SE 22 28 12 15 1010.4 1010.3 0.0
17/02:00pm 29.9 29.9 21.0 59 5.9 ESE 22 28 12 15 1010.7 1010.6 0.0
17/01:30pm 30.0 30.1 21.1 59 6.0 ESE 22 26 12 14 1011.0 1010.9 0.0
17/01:00pm 30.1 30.6 21.2 59 6.0 ESE 20 28 11 15 1011.3 1011.2 0.0
17/12:30pm 30.3 30.8 21.9 60 5.7 ESE 22 26 12 14 1011.7 1011.6 0.0
17/12:00pm 29.3 29.6 20.7 59 5.7 ESE 20 26 11 14 1012.1 1012.0 0.0
17/11:30am 29.5 29.5 20.9 60 5.7 ESE 22 28 12 15 1012.6 1012.5 0.0
17/11:00am 28.7 28.4 20.4 60 5.5 ESE 22 26 12 14 1012.8 1012.7 0.0
17/10:30am 29.4 30.1 21.6 63 5.2 ESE 20 26 11 14 1013.1 1013.0 0.0
17/10:00am 29.5 30.1 21.4 61 5.4 ESE 20 26 11 14 1013.4 1013.3 0.0
17/09:30am 27.7 28.0 20.8 66 4.6 ESE 20 26 11 14 1013.5 1013.4 0.0
17/09:00am 27.2 27.5 20.8 68 4.2 ESE 20 24 11 13 1013.4 1013.3 0.0
17/08:30am 26.5 26.9 21.0 72 3.6 ESE 20 26 11 14 1013.2 1013.1 0.0
17/08:00am 26.1 27.1 21.1 74 3.3 SE 17 20 9 11 1012.9 1012.8 0.0
17/07:30am 24.9 26.0 21.2 80 2.4 SE 17 20 9 11 1012.7 1012.6 0.0
17/07:00am 23.4 24.6 20.7 85 1.8 SE 15 20 8 11 1012.3 1012.2 0.0
17/06:30am 22.9 24.0 20.4 86 1.6 SE 15 17 8 9 1012.1 1012.0 0.0
17/06:00am 22.7 23.6 20.0 85 1.7 SE 15 17 8 9 1011.8 1011.7 0.0
17/05:30am 22.9 24.2 20.2 85 1.7 SE 13 15 7 8 1011.6 1011.5 0.0
17/05:00am 23.1 24.4 20.2 84 1.9 SE 13 17 7 9 1011.2 1011.1 0.0
17/04:30am 23.1 24.3 19.9 82 2.1 SE 13 17 7 9 1011.0 1010.9 0.0
17/04:00am 23.4 24.0 20.2 82 2.1 SE 17 20 9 11 1011.0 1010.9 0.0
17/03:30am 23.6 24.2 20.3 82 2.1 SE 17 20 9 11 1011.3 1011.2 0.0
17/03:00am 23.7 24.3 20.2 81 2.3 ESE 17 20 9 11 1011.4 1011.3 0.0
17/02:30am 23.8 24.1 20.3 81 2.3 ESE 19 22 10 12 1011.5 1011.4 0.0
17/02:00am 23.9 24.1 20.2 80 2.4 SE 19 22 10 12 1011.9 1011.8 0.0
17/01:30am 24.1 24.4 20.4 80 2.4 ESE 19 24 10 13 1011.9 1011.8 0.0
17/01:00am 24.0 23.9 19.9 78 2.6 ESE 20 26 11 14 1012.2 1012.1 0.0
17/12:30am 24.2 24.3 20.3 79 2.5 SE 20 26 11 14 1012.6 1012.5 0.0
17/12:00am 24.2 23.3 19.9 77 2.8 SE 24 30 13 16 1012.8 1012.7 0.0
 
Date/Time
CST
Temp
°C
App
Temp
°C
Dew
Point
°C
Rel
Hum
%
Delta-T
°C
Wind Press
QNH
hPa
Press
MSL
hPa
Rain since
9am
mm
Dir  Spd
km/h
Gust
km/h
Spd
kts
Gust
kts
16/11:30pm 24.4 23.2 20.1 77 2.8 SE 26 30 14 16 1012.8 1012.7 0.0
16/11:00pm 24.5 23.4 20.2 77 2.8 SE 26 33 14 18 1012.7 1012.6 0.0
16/10:30pm 24.4 23.3 20.3 78 2.7 SE 26 32 14 17 1012.6 1012.5 0.0
16/10:00pm 24.4 23.8 20.5 79 2.5 ESE 24 30 13 16 1012.6 1012.5 0.0
16/09:30pm 24.4 23.6 20.1 77 2.8 ESE 24 30 13 16 1012.7 1012.6 0.0
16/09:00pm 24.4 23.5 19.9 76 2.9 ESE 24 30 13 16 1012.5 1012.4 0.0
16/08:30pm 24.4 23.5 19.9 76 2.9 ESE 24 30 13 16 1012.5 1012.4 0.0
16/08:00pm 24.5 23.2 19.8 75 3.0 ESE 26 35 14 19 1012.2 1012.1 0.0
16/07:30pm 24.5 22.8 19.8 75 3.0 ESE 28 35 15 19 1011.8 1011.7 0.0

Other Formats:

Comma delimited format used in spreadsheet applications
http://www.bom.gov.au/fwo/IDD60801/IDD60801.94147.axf

JavaScript Object Notation format (JSON) in row-major order
http://www.bom.gov.au/fwo/IDD60801/IDD60801.94147.json